ESOE/ORB METAR and TAF weather

Enter ICAO airport designator
Station Type Date Time Source
ESOE METAR 2022/11/27 08:50 UTC NOAA

ESOE 270850Z AUTO 11005KT 9000 BR VV003 M00/M01 Q1028


Station Type Date Time Source
ESOE Decoded METAR 2022/11/27 08:50 UTC NOAA

Orebro Private , Sweden (ESOE) 59-14N 015-03E
Nov 27, 2022 - 03:50 AM EST / 2022.11.27 0850 UTC
Wind: from the ESE (110 degrees) at 6 MPH (5 KT):0
Visibility: 5 mile(s):0
Sky conditions: obscured
Weather: mist
Temperature: 32 F (0 C)
Windchill: 26 F (-3 C):1
Dew Point: 30 F (-1 C)
Relative Humidity: 92%
Pressure (altimeter): 30.36 in. Hg (1028 hPa)
ob: ESOE 270850Z AUTO 11005KT 9000 BR VV003 M00/M01 Q1028
cycle: 9

Station Type Date Time Source
ESOE TAF 2022/03/13 08:53 UTC NOAA

TAF ESOE 130730Z 1308/1321 VRB03KT CAVOK

Example: see airport list